CheckWX is a tool to help pilots better visualize weather data.  It is not intended as a substitute for an official pre-flight weather briefing.

13:06:48 UTC

SARE METAR
Resistencia International Airport
Resistencia, Argentina
Current

1 hour ago

SARE 271200Z 04005KT 8000 NSC 11/11 Q1018
Observed
May-27 @ 12:00 UTC
Wind
  • 040° at 5 KTS
Visibility
7998 meters
Flight Rules
MVFR
Cloud Levels
  • Clear skies
Temperature
11°C / 52°F
Dewpoint
11°C / 52°F
Humidity
100%
Altimeter
30.06" Hg
Pressure
1017.92 hPa
Previous

2 hours ago

SARE 271100Z 04003KT 6000 NSC 07/07 Q1017
Observed
May-27 @ 11:00 UTC
Wind
  • 040° at 3 KTS
Visibility
6003 meters
Flight Rules
MVFR
Cloud Levels
  • Clear skies
Temperature
C / 45°F
Dewpoint
C / 45°F
Humidity
100%
Altimeter
30.03" Hg
Pressure
1016.92 hPa
Previous

3 hours ago

SARE 271000Z 04004KT 8000 NSC 07/07 Q1017
Observed
May-27 @ 10:00 UTC
Wind
  • 040° at 4 KTS
Visibility
7998 meters
Flight Rules
MVFR
Cloud Levels
  • Clear skies
Temperature
C / 45°F
Dewpoint
C / 45°F
Humidity
100%
Altimeter
30.03" Hg
Pressure
1016.92 hPa